This is the latest recevied weather packets stored in our database for station/object DM7LA-WX. If no packets are shown the sender has not sent any weather packets the latest 10 day(s).
| Time | Temp. | Humidity | Pressure | Rain* | Wind** | Luminosity | Snow |
|---|---|---|---|---|---|---|---|
| 1787432282 | 15° C | 75% | 1015.2 hPa | 0 mm | - | - | - |
| 1787428682 | 14.44° C | 77% | 1015.3 hPa | 0 mm | - | - | - |
| 1787425082 | 15.56° C | 73% | 1014.8 hPa | 0 mm | - | - | - |
| 1787421482 | 15.56° C | 74% | 1014.5 hPa | 0 mm | - | - | - |
| 1787417881 | 15° C | 79% | 1014 hPa | 0 mm | - | - | - |
| 1787414282 | 15.56° C | 79% | 1013.3 hPa | 0 mm | - | - | - |
| 1787410682 | 17.22° C | 72% | 1013.4 hPa | 0 mm | - | - | - |
| 1787407082 | 17.22° C | 71% | 1012.8 hPa | 0 mm | - | - | - |
| 1787403482 | 15° C | 82% | 1012.6 hPa | 0.25 mm | - | - | - |
| 1787399881 | 15° C | 80% | 1012.4 hPa | 0 mm | - | - | - |
| 1787396282 | 17.22° C | 64% | 1011.7 hPa | 0 mm | - | - | - |
| 1787392682 | 16.11° C | 68% | 1011.3 hPa | 0 mm | - | - | - |
| 1787389081 | 16.11° C | 74% | 1010.8 hPa | 0 mm | - | - | - |
| 1787385481 | 16.11° C | 71% | 1010.4 hPa | 0 mm | - | - | - |
| 1787381881 | 15.56° C | 77% | 1009.5 hPa | 0.25 mm | - | - | - |
| 1787378282 | 15.56° C | 73% | 1009.2 hPa | 0 mm | - | - | - |
| 1787374681 | 15.56° C | 78% | 1008.9 hPa | 0 mm | - | - | - |
| 1787371081 | 15° C | 75% | 1008.7 hPa | 0 mm | - | - | - |
| 1787367482 | 15° C | 75% | 1008.5 hPa | 0 mm | - | - | - |
| 1787363881 | 15.56° C | 72% | 1008.4 hPa | 0 mm | - | - | - |
| 1787360281 | 16.11° C | 72% | 1007.8 hPa | 0 mm | - | - | - |
* Rain latest hour (hover to see other rain measurements)
** Current wind speed in m/s (hover to see current wind gust speed)